Kilgetty, United Kingdom
Current Conditions -  °F | °C
As of 2:50 AM on Tuesday 23 Dec 2014 (Local Time) from EGOP Reporting Station
Broken Clouds Broken Clouds  
Wind Chill: 12°   Ceiling: 4300
Heat Index: 12°   Visibility: 6mi
Dew Point: 10°   Wind: 32mph
Humidity: 88%   Direction: 240°WSW
Pressure: 30.06"   Gusts: NA
Location:  51.73°N, 4.76°W
Report Text: EGOP 230250Z AUTO 24028KT 9999 // FEW027/// BKN043/// 12/10 Q1018
Loading
Personal Weather Stations






























Interactive Weather Map New forecast layout! Learn more

10-Day Weather Forecast

Advertisements
Track Severe Weather on mobile